sensor_id;sensor_type;location;lat;lon;timestamp;P1;durP1;ratioP1;P2;durP2;ratioP2
16393;SDS011;8306;51.128;4.476;2023-02-07T00:02:12;24.73;;;12.40;;
16393;SDS011;8306;51.128;4.476;2023-02-07T00:04:39;26.07;;;13.67;;
16393;SDS011;8306;51.128;4.476;2023-02-07T00:07:05;22.23;;;11.60;;
16393;SDS011;8306;51.128;4.476;2023-02-07T00:09:32;28.60;;;13.47;;
16393;SDS011;8306;51.128;4.476;2023-02-07T00:11:58;24.97;;;12.70;;
16393;SDS011;8306;51.128;4.476;2023-02-07T00:14:25;24.70;;;11.40;;
16393;SDS011;8306;51.128;4.476;2023-02-07T00:20:13;23.37;;;11.97;;
16393;SDS011;8306;51.128;4.476;2023-02-07T00:22:39;22.60;;;12.70;;
16393;SDS011;8306;51.128;4.476;2023-02-07T00:25:06;37.27;;;14.00;;
16393;SDS011;8306;51.128;4.476;2023-02-07T00:27:32;29.33;;;12.90;;
16393;SDS011;8306;51.128;4.476;2023-02-07T00:29:59;22.67;;;14.17;;
16393;SDS011;8306;51.128;4.476;2023-02-07T00:32:25;30.47;;;14.70;;
16393;SDS011;8306;51.128;4.476;2023-02-07T00:34:52;30.83;;;14.10;;
16393;SDS011;8306;51.128;4.476;2023-02-07T00:37:18;36.57;;;16.30;;
16393;SDS011;8306;51.128;4.476;2023-02-07T00:39:45;32.37;;;15.40;;
16393;SDS011;8306;51.128;4.476;2023-02-07T00:42:11;35.80;;;16.13;;
16393;SDS011;8306;51.128;4.476;2023-02-07T00:44:38;25.47;;;14.43;;
16393;SDS011;8306;51.128;4.476;2023-02-07T00:47:04;26.03;;;14.23;;
16393;SDS011;8306;51.128;4.476;2023-02-07T00:49:31;32.77;;;14.93;;
16393;SDS011;8306;51.128;4.476;2023-02-07T00:51:57;34.60;;;16.73;;
16393;SDS011;8306;51.128;4.476;2023-02-07T00:54:24;35.30;;;14.33;;
16393;SDS011;8306;51.128;4.476;2023-02-07T00:56:50;27.47;;;13.83;;
16393;SDS011;8306;51.128;4.476;2023-02-07T00:59:16;30.03;;;15.50;;
16393;SDS011;8306;51.128;4.476;2023-02-07T01:01:43;38.07;;;15.27;;
16393;SDS011;8306;51.128;4.476;2023-02-07T01:04:09;30.53;;;14.33;;
16393;SDS011;8306;51.128;4.476;2023-02-07T01:06:36;37.20;;;17.53;;
16393;SDS011;8306;51.128;4.476;2023-02-07T01:09:03;41.13;;;20.90;;
16393;SDS011;8306;51.128;4.476;2023-02-07T01:11:29;41.07;;;17.43;;
16393;SDS011;8306;51.128;4.476;2023-02-07T01:13:57;40.93;;;16.87;;
16393;SDS011;8306;51.128;4.476;2023-02-07T01:16:24;34.33;;;16.40;;
16393;SDS011;8306;51.128;4.476;2023-02-07T01:18:48;45.90;;;18.13;;
16393;SDS011;8306;51.128;4.476;2023-02-07T01:21:19;33.90;;;16.73;;
16393;SDS011;8306;51.128;4.476;2023-02-07T01:23:44;31.63;;;17.43;;
16393;SDS011;8306;51.128;4.476;2023-02-07T01:26:10;38.73;;;17.40;;
16393;SDS011;8306;51.128;4.476;2023-02-07T01:28:37;35.37;;;17.77;;
16393;SDS011;8306;51.128;4.476;2023-02-07T01:31:07;42.80;;;16.93;;
16393;SDS011;8306;51.128;4.476;2023-02-07T01:33:34;29.37;;;14.40;;
16393;SDS011;8306;51.128;4.476;2023-02-07T01:36:00;34.60;;;16.50;;
16393;SDS011;8306;51.128;4.476;2023-02-07T01:38:26;29.87;;;14.73;;
16393;SDS011;8306;51.128;4.476;2023-02-07T01:40:53;18.27;;;12.40;;
16393;SDS011;8306;51.128;4.476;2023-02-07T01:43:20;25.80;;;14.90;;
16393;SDS011;8306;51.128;4.476;2023-02-07T01:45:46;29.70;;;15.90;;
16393;SDS011;8306;51.128;4.476;2023-02-07T01:48:28;33.03;;;15.93;;
16393;SDS011;8306;51.128;4.476;2023-02-07T01:50:54;33.60;;;15.07;;
16393;SDS011;8306;51.128;4.476;2023-02-07T01:53:21;34.97;;;16.00;;
16393;SDS011;8306;51.128;4.476;2023-02-07T01:55:47;35.07;;;17.77;;
16393;SDS011;8306;51.128;4.476;2023-02-07T01:58:13;31.27;;;15.67;;
16393;SDS011;8306;51.128;4.476;2023-02-07T02:00:39;34.90;;;16.17;;
16393;SDS011;8306;51.128;4.476;2023-02-07T02:03:06;37.80;;;17.70;;
16393;SDS011;8306;51.128;4.476;2023-02-07T02:05:32;34.60;;;19.07;;
16393;SDS011;8306;51.128;4.476;2023-02-07T02:07:59;44.70;;;19.70;;
16393;SDS011;8306;51.128;4.476;2023-02-07T02:10:29;39.23;;;19.07;;
16393;SDS011;8306;51.128;4.476;2023-02-07T02:16:16;39.63;;;18.83;;
16393;SDS011;8306;51.128;4.476;2023-02-07T02:21:06;38.63;;;18.93;;
16393;SDS011;8306;51.128;4.476;2023-02-07T02:23:42;30.90;;;16.90;;
16393;SDS011;8306;51.128;4.476;2023-02-07T02:26:18;32.67;;;17.50;;
16393;SDS011;8306;51.128;4.476;2023-02-07T02:39:35;43.80;;;19.33;;
16393;SDS011;8306;51.128;4.476;2023-02-07T02:42:22;46.37;;;20.00;;
16393;SDS011;8306;51.128;4.476;2023-02-07T02:45:00;36.33;;;19.57;;
16393;SDS011;8306;51.128;4.476;2023-02-07T02:47:17;40.90;;;20.30;;
16393;SDS011;8306;51.128;4.476;2023-02-07T02:49:43;52.13;;;22.17;;
16393;SDS011;8306;51.128;4.476;2023-02-07T02:52:09;44.63;;;22.67;;
16393;SDS011;8306;51.128;4.476;2023-02-07T02:54:36;49.20;;;22.43;;
16393;SDS011;8306;51.128;4.476;2023-02-07T03:07:44;53.40;;;22.63;;
16393;SDS011;8306;51.128;4.476;2023-02-07T03:10:55;59.03;;;25.13;;
16393;SDS011;8306;51.128;4.476;2023-02-07T03:13:03;55.60;;;22.70;;
16393;SDS011;8306;51.128;4.476;2023-02-07T03:15:44;65.07;;;25.90;;
16393;SDS011;8306;51.128;4.476;2023-02-07T03:20:52;56.77;;;25.70;;
16393;SDS011;8306;51.128;4.476;2023-02-07T03:26:04;43.07;;;20.40;;
16393;SDS011;8306;51.128;4.476;2023-02-07T03:28:31;51.87;;;24.40;;
16393;SDS011;8306;51.128;4.476;2023-02-07T03:30:57;68.23;;;26.73;;
16393;SDS011;8306;51.128;4.476;2023-02-07T03:33:24;44.43;;;22.90;;
16393;SDS011;8306;51.128;4.476;2023-02-07T03:35:59;66.57;;;27.13;;
16393;SDS011;8306;51.128;4.476;2023-02-07T03:38:23;58.37;;;26.63;;
16393;SDS011;8306;51.128;4.476;2023-02-07T03:40:51;46.70;;;24.03;;
16393;SDS011;8306;51.128;4.476;2023-02-07T03:43:17;65.83;;;26.37;;
16393;SDS011;8306;51.128;4.476;2023-02-07T03:45:45;66.07;;;28.10;;
16393;SDS011;8306;51.128;4.476;2023-02-07T03:48:11;63.77;;;26.40;;
16393;SDS011;8306;51.128;4.476;2023-02-07T03:50:37;67.13;;;25.43;;
16393;SDS011;8306;51.128;4.476;2023-02-07T03:53:04;69.40;;;25.80;;
16393;SDS011;8306;51.128;4.476;2023-02-07T03:55:31;53.50;;;23.83;;
16393;SDS011;8306;51.128;4.476;2023-02-07T03:57:57;62.23;;;26.33;;
16393;SDS011;8306;51.128;4.476;2023-02-07T04:00:23;61.30;;;25.27;;
16393;SDS011;8306;51.128;4.476;2023-02-07T04:02:50;67.87;;;28.30;;
16393;SDS011;8306;51.128;4.476;2023-02-07T04:05:16;50.33;;;23.93;;
16393;SDS011;8306;51.128;4.476;2023-02-07T04:07:43;63.57;;;25.80;;
16393;SDS011;8306;51.128;4.476;2023-02-07T04:10:10;59.60;;;26.23;;
16393;SDS011;8306;51.128;4.476;2023-02-07T04:12:36;73.50;;;26.70;;
16393;SDS011;8306;51.128;4.476;2023-02-07T04:15:03;49.43;;;23.77;;
16393;SDS011;8306;51.128;4.476;2023-02-07T04:17:29;41.43;;;23.07;;
16393;SDS011;8306;51.128;4.476;2023-02-07T04:19:55;34.93;;;19.70;;
16393;SDS011;8306;51.128;4.476;2023-02-07T04:22:22;48.37;;;22.50;;
16393;SDS011;8306;51.128;4.476;2023-02-07T04:24:48;68.57;;;26.90;;
16393;SDS011;8306;51.128;4.476;2023-02-07T04:27:15;54.87;;;24.63;;
16393;SDS011;8306;51.128;4.476;2023-02-07T04:29:41;55.67;;;25.77;;
16393;SDS011;8306;51.128;4.476;2023-02-07T04:32:08;48.37;;;23.67;;
16393;SDS011;8306;51.128;4.476;2023-02-07T04:34:34;62.63;;;26.33;;
16393;SDS011;8306;51.128;4.476;2023-02-07T04:37:01;55.23;;;24.03;;
16393;SDS011;8306;51.128;4.476;2023-02-07T04:39:27;35.03;;;21.03;;
16393;SDS011;8306;51.128;4.476;2023-02-07T04:41:54;55.90;;;24.77;;
16393;SDS011;8306;51.128;4.476;2023-02-07T04:44:20;51.47;;;23.37;;
16393;SDS011;8306;51.128;4.476;2023-02-07T04:46:47;54.53;;;23.20;;
16393;SDS011;8306;51.128;4.476;2023-02-07T04:49:13;65.17;;;26.53;;
16393;SDS011;8306;51.128;4.476;2023-02-07T04:51:39;30.73;;;18.60;;
16393;SDS011;8306;51.128;4.476;2023-02-07T04:54:06;67.60;;;26.50;;
16393;SDS011;8306;51.128;4.476;2023-02-07T04:56:32;61.30;;;25.60;;
16393;SDS011;8306;51.128;4.476;2023-02-07T04:58:59;63.37;;;25.67;;
16393;SDS011;8306;51.128;4.476;2023-02-07T05:01:25;39.93;;;21.83;;
16393;SDS011;8306;51.128;4.476;2023-02-07T05:03:52;51.97;;;22.13;;
16393;SDS011;8306;51.128;4.476;2023-02-07T05:06:18;43.13;;;21.73;;
16393;SDS011;8306;51.128;4.476;2023-02-07T05:08:45;35.37;;;19.70;;
16393;SDS011;8306;51.128;4.476;2023-02-07T05:11:11;50.90;;;21.40;;
16393;SDS011;8306;51.128;4.476;2023-02-07T05:13:38;56.83;;;24.20;;
16393;SDS011;8306;51.128;4.476;2023-02-07T05:16:04;59.50;;;25.57;;
16393;SDS011;8306;51.128;4.476;2023-02-07T05:18:31;32.20;;;19.53;;
16393;SDS011;8306;51.128;4.476;2023-02-07T05:20:57;66.33;;;25.53;;
16393;SDS011;8306;51.128;4.476;2023-02-07T05:23:24;68.07;;;27.57;;
16393;SDS011;8306;51.128;4.476;2023-02-07T05:25:50;62.23;;;24.30;;
16393;SDS011;8306;51.128;4.476;2023-02-07T05:28:17;57.27;;;25.67;;
16393;SDS011;8306;51.128;4.476;2023-02-07T05:30:43;65.63;;;26.57;;
16393;SDS011;8306;51.128;4.476;2023-02-07T05:33:10;38.17;;;20.83;;
16393;SDS011;8306;51.128;4.476;2023-02-07T05:35:40;80.80;;;27.53;;
16393;SDS011;8306;51.128;4.476;2023-02-07T05:38:07;36.00;;;19.77;;
16393;SDS011;8306;51.128;4.476;2023-02-07T05:40:32;69.63;;;26.57;;
16393;SDS011;8306;51.128;4.476;2023-02-07T05:42:58;50.13;;;23.43;;
16393;SDS011;8306;51.128;4.476;2023-02-07T05:45:25;41.33;;;22.43;;
16393;SDS011;8306;51.128;4.476;2023-02-07T05:47:51;33.90;;;21.80;;
16393;SDS011;8306;51.128;4.476;2023-02-07T05:50:18;42.13;;;21.03;;
16393;SDS011;8306;51.128;4.476;2023-02-07T05:52:44;49.90;;;24.47;;
16393;SDS011;8306;51.128;4.476;2023-02-07T05:55:11;52.80;;;25.10;;
16393;SDS011;8306;51.128;4.476;2023-02-07T05:57:38;61.60;;;25.97;;
16393;SDS011;8306;51.128;4.476;2023-02-07T06:00:08;40.53;;;22.27;;
16393;SDS011;8306;51.128;4.476;2023-02-07T06:02:33;36.67;;;20.27;;
16393;SDS011;8306;51.128;4.476;2023-02-07T06:05:00;45.93;;;21.47;;
16393;SDS011;8306;51.128;4.476;2023-02-07T06:07:26;44.77;;;23.57;;
16393;SDS011;8306;51.128;4.476;2023-02-07T06:09:53;36.10;;;21.30;;
16393;SDS011;8306;51.128;4.476;2023-02-07T06:12:19;38.33;;;20.80;;
16393;SDS011;8306;51.128;4.476;2023-02-07T06:14:46;24.30;;;17.90;;
16393;SDS011;8306;51.128;4.476;2023-02-07T06:17:12;43.00;;;22.33;;
16393;SDS011;8306;51.128;4.476;2023-02-07T06:19:39;48.20;;;23.97;;
16393;SDS011;8306;51.128;4.476;2023-02-07T06:22:05;56.00;;;25.73;;
16393;SDS011;8306;51.128;4.476;2023-02-07T06:24:32;56.77;;;25.37;;
16393;SDS011;8306;51.128;4.476;2023-02-07T06:26:58;46.80;;;22.03;;
16393;SDS011;8306;51.128;4.476;2023-02-07T06:29:25;49.47;;;24.03;;
16393;SDS011;8306;51.128;4.476;2023-02-07T06:31:51;43.03;;;22.40;;
16393;SDS011;8306;51.128;4.476;2023-02-07T06:34:18;44.70;;;21.93;;
16393;SDS011;8306;51.128;4.476;2023-02-07T06:36:44;43.37;;;23.40;;
16393;SDS011;8306;51.128;4.476;2023-02-07T06:39:11;57.03;;;25.17;;
16393;SDS011;8306;51.128;4.476;2023-02-07T06:41:37;38.47;;;22.03;;
16393;SDS011;8306;51.128;4.476;2023-02-07T06:44:04;50.13;;;23.10;;
16393;SDS011;8306;51.128;4.476;2023-02-07T06:46:30;35.30;;;20.40;;
16393;SDS011;8306;51.128;4.476;2023-02-07T06:48:57;59.53;;;25.13;;
16393;SDS011;8306;51.128;4.476;2023-02-07T06:51:23;33.50;;;19.77;;
16393;SDS011;8306;51.128;4.476;2023-02-07T06:53:50;28.17;;;19.30;;
16393;SDS011;8306;51.128;4.476;2023-02-07T06:56:16;28.93;;;18.83;;
16393;SDS011;8306;51.128;4.476;2023-02-07T06:58:43;30.63;;;19.97;;
16393;SDS011;8306;51.128;4.476;2023-02-07T07:01:09;46.30;;;22.93;;
16393;SDS011;8306;51.128;4.476;2023-02-07T07:03:36;54.03;;;23.47;;
16393;SDS011;8306;51.128;4.476;2023-02-07T07:06:02;42.37;;;22.93;;
16393;SDS011;8306;51.128;4.476;2023-02-07T07:08:29;47.53;;;24.00;;
16393;SDS011;8306;51.128;4.476;2023-02-07T07:10:55;50.73;;;23.93;;
16393;SDS011;8306;51.128;4.476;2023-02-07T07:13:22;31.83;;;19.20;;
16393;SDS011;8306;51.128;4.476;2023-02-07T07:15:48;60.03;;;24.73;;
16393;SDS011;8306;51.128;4.476;2023-02-07T07:18:15;42.90;;;23.03;;
16393;SDS011;8306;51.128;4.476;2023-02-07T07:20:41;64.67;;;27.80;;
16393;SDS011;8306;51.128;4.476;2023-02-07T07:23:08;30.00;;;19.47;;
16393;SDS011;8306;51.128;4.476;2023-02-07T07:25:34;46.40;;;23.63;;
16393;SDS011;8306;51.128;4.476;2023-02-07T07:28:00;51.97;;;26.30;;
16393;SDS011;8306;51.128;4.476;2023-02-07T07:30:27;60.17;;;25.83;;
16393;SDS011;8306;51.128;4.476;2023-02-07T07:32:54;54.10;;;23.73;;
16393;SDS011;8306;51.128;4.476;2023-02-07T07:35:20;38.07;;;21.33;;
16393;SDS011;8306;51.128;4.476;2023-02-07T07:37:46;32.10;;;20.07;;
16393;SDS011;8306;51.128;4.476;2023-02-07T07:40:13;36.83;;;21.17;;
16393;SDS011;8306;51.128;4.476;2023-02-07T07:42:39;46.70;;;20.80;;
16393;SDS011;8306;51.128;4.476;2023-02-07T07:45:06;42.43;;;21.30;;
16393;SDS011;8306;51.128;4.476;2023-02-07T07:47:32;47.83;;;23.20;;
16393;SDS011;8306;51.128;4.476;2023-02-07T07:49:59;62.90;;;26.17;;
16393;SDS011;8306;51.128;4.476;2023-02-07T07:52:25;69.33;;;27.43;;
16393;SDS011;8306;51.128;4.476;2023-02-07T07:54:52;73.13;;;24.23;;
16393;SDS011;8306;51.128;4.476;2023-02-07T07:57:18;98.77;;;28.47;;
16393;SDS011;8306;51.128;4.476;2023-02-07T07:59:45;85.70;;;27.93;;
16393;SDS011;8306;51.128;4.476;2023-02-07T08:02:11;118.67;;;31.07;;
16393;SDS011;8306;51.128;4.476;2023-02-07T08:04:38;238.83;;;31.70;;
16393;SDS011;8306;51.128;4.476;2023-02-07T08:07:04;49.97;;;24.03;;
16393;SDS011;8306;51.128;4.476;2023-02-07T08:09:31;208.90;;;30.10;;
16393;SDS011;8306;51.128;4.476;2023-02-07T08:11:57;149.27;;;27.53;;
16393;SDS011;8306;51.128;4.476;2023-02-07T08:14:24;252.60;;;29.23;;
16393;SDS011;8306;51.128;4.476;2023-02-07T08:16:50;153.03;;;29.47;;
16393;SDS011;8306;51.128;4.476;2023-02-07T08:19:17;174.83;;;36.83;;
16393;SDS011;8306;51.128;4.476;2023-02-07T08:21:43;252.33;;;35.73;;
16393;SDS011;8306;51.128;4.476;2023-02-07T08:24:10;171.53;;;33.93;;
16393;SDS011;8306;51.128;4.476;2023-02-07T08:26:36;176.90;;;31.73;;
16393;SDS011;8306;51.128;4.476;2023-02-07T08:29:03;187.20;;;34.90;;
16393;SDS011;8306;51.128;4.476;2023-02-07T08:31:29;136.20;;;38.07;;
16393;SDS011;8306;51.128;4.476;2023-02-07T08:33:56;85.93;;;33.53;;
16393;SDS011;8306;51.128;4.476;2023-02-07T08:36:22;113.33;;;30.53;;
16393;SDS011;8306;51.128;4.476;2023-02-07T08:38:49;94.57;;;32.47;;
16393;SDS011;8306;51.128;4.476;2023-02-07T08:41:15;97.60;;;32.13;;
16393;SDS011;8306;51.128;4.476;2023-02-07T08:43:42;162.53;;;34.60;;
16393;SDS011;8306;51.128;4.476;2023-02-07T08:46:08;141.67;;;32.70;;
16393;SDS011;8306;51.128;4.476;2023-02-07T08:48:34;134.63;;;33.10;;
16393;SDS011;8306;51.128;4.476;2023-02-07T08:51:07;134.43;;;32.67;;
16393;SDS011;8306;51.128;4.476;2023-02-07T08:53:33;76.90;;;29.77;;
16393;SDS011;8306;51.128;4.476;2023-02-07T08:56:00;99.73;;;33.70;;
16393;SDS011;8306;51.128;4.476;2023-02-07T08:58:26;88.13;;;32.33;;
16393;SDS011;8306;51.128;4.476;2023-02-07T09:00:53;120.87;;;36.17;;
16393;SDS011;8306;51.128;4.476;2023-02-07T09:03:19;77.70;;;32.07;;
16393;SDS011;8306;51.128;4.476;2023-02-07T09:05:46;86.13;;;33.83;;
16393;SDS011;8306;51.128;4.476;2023-02-07T09:08:12;63.17;;;29.17;;
16393;SDS011;8306;51.128;4.476;2023-02-07T09:10:39;72.53;;;32.07;;
16393;SDS011;8306;51.128;4.476;2023-02-07T09:13:05;72.13;;;32.03;;
16393;SDS011;8306;51.128;4.476;2023-02-07T09:15:32;72.70;;;33.90;;
16393;SDS011;8306;51.128;4.476;2023-02-07T09:17:58;56.80;;;30.00;;
16393;SDS011;8306;51.128;4.476;2023-02-07T09:20:25;66.50;;;29.90;;
16393;SDS011;8306;51.128;4.476;2023-02-07T09:22:51;61.00;;;29.20;;
16393;SDS011;8306;51.128;4.476;2023-02-07T09:25:36;65.50;;;31.13;;
16393;SDS011;8306;51.128;4.476;2023-02-07T09:28:02;56.80;;;27.57;;
16393;SDS011;8306;51.128;4.476;2023-02-07T09:30:29;49.00;;;26.13;;
16393;SDS011;8306;51.128;4.476;2023-02-07T09:32:56;51.97;;;28.10;;
16393;SDS011;8306;51.128;4.476;2023-02-07T09:35:22;52.90;;;28.67;;
16393;SDS011;8306;51.128;4.476;2023-02-07T09:37:51;49.60;;;26.83;;
16393;SDS011;8306;51.128;4.476;2023-02-07T09:40:15;47.00;;;25.47;;
16393;SDS011;8306;51.128;4.476;2023-02-07T09:42:42;52.43;;;27.20;;
16393;SDS011;8306;51.128;4.476;2023-02-07T09:45:11;42.77;;;24.53;;
16393;SDS011;8306;51.128;4.476;2023-02-07T09:47:37;41.63;;;24.47;;
16393;SDS011;8306;51.128;4.476;2023-02-07T09:50:06;32.47;;;23.30;;
16393;SDS011;8306;51.128;4.476;2023-02-07T09:52:36;43.33;;;24.60;;
16393;SDS011;8306;51.128;4.476;2023-02-07T09:54:59;37.57;;;23.47;;
16393;SDS011;8306;51.128;4.476;2023-02-07T09:57:33;34.57;;;23.03;;
16393;SDS011;8306;51.128;4.476;2023-02-07T10:00:04;37.17;;;23.50;;
16393;SDS011;8306;51.128;4.476;2023-02-07T10:02:35;35.97;;;22.10;;
16393;SDS011;8306;51.128;4.476;2023-02-07T10:05:01;29.87;;;21.33;;
16393;SDS011;8306;51.128;4.476;2023-02-07T10:07:26;35.53;;;21.93;;
16393;SDS011;8306;51.128;4.476;2023-02-07T10:09:52;24.77;;;19.10;;
16393;SDS011;8306;51.128;4.476;2023-02-07T10:12:36;20.57;;;17.50;;
16393;SDS011;8306;51.128;4.476;2023-02-07T10:15:08;26.67;;;17.90;;
16393;SDS011;8306;51.128;4.476;2023-02-07T10:31:03;13.40;;;12.07;;
16393;SDS011;8306;51.128;4.476;2023-02-07T10:33:30;12.27;;;11.10;;
16393;SDS011;8306;51.128;4.476;2023-02-07T10:35:56;10.60;;;9.60;;
16393;SDS011;8306;51.128;4.476;2023-02-07T10:41:33;10.53;;;9.63;;
16393;SDS011;8306;51.128;4.476;2023-02-07T10:44:04;10.67;;;9.60;;
16393;SDS011;8306;51.128;4.476;2023-02-07T10:46:30;10.20;;;9.13;;
16393;SDS011;8306;51.128;4.476;2023-02-07T10:48:56;8.40;;;7.60;;
16393;SDS011;8306;51.128;4.476;2023-02-07T10:51:33;9.17;;;8.27;;
16393;SDS011;8306;51.128;4.476;2023-02-07T10:56:30;8.73;;;8.03;;
16393;SDS011;8306;51.128;4.476;2023-02-07T10:58:57;8.37;;;7.57;;
16393;SDS011;8306;51.128;4.476;2023-02-07T11:01:24;9.90;;;8.90;;
16393;SDS011;8306;51.128;4.476;2023-02-07T11:03:50;9.03;;;8.33;;
16393;SDS011;8306;51.128;4.476;2023-02-07T11:06:29;9.00;;;8.17;;
16393;SDS011;8306;51.128;4.476;2023-02-07T11:11:47;8.63;;;7.83;;
16393;SDS011;8306;51.128;4.476;2023-02-07T11:14:14;8.07;;;7.37;;
16393;SDS011;8306;51.128;4.476;2023-02-07T11:16:39;8.97;;;8.03;;
16393;SDS011;8306;51.128;4.476;2023-02-07T11:19:05;8.70;;;7.90;;
16393;SDS011;8306;51.128;4.476;2023-02-07T11:24:44;7.20;;;6.60;;
16393;SDS011;8306;51.128;4.476;2023-02-07T11:26:31;7.10;;;6.53;;
16393;SDS011;8306;51.128;4.476;2023-02-07T11:29:02;7.60;;;6.90;;
16393;SDS011;8306;51.128;4.476;2023-02-07T11:31:30;7.23;;;6.60;;
16393;SDS011;8306;51.128;4.476;2023-02-07T11:34:06;7.23;;;6.60;;
16393;SDS011;8306;51.128;4.476;2023-02-07T11:36:23;7.37;;;6.77;;
16393;SDS011;8306;51.128;4.476;2023-02-07T11:38:49;7.33;;;6.80;;
16393;SDS011;8306;51.128;4.476;2023-02-07T11:41:22;7.30;;;6.60;;
16393;SDS011;8306;51.128;4.476;2023-02-07T11:43:53;6.20;;;5.70;;
16393;SDS011;8306;51.128;4.476;2023-02-07T11:46:16;6.50;;;5.90;;
16393;SDS011;8306;51.128;4.476;2023-02-07T11:48:45;6.90;;;6.40;;
16393;SDS011;8306;51.128;4.476;2023-02-07T11:51:09;8.53;;;6.87;;
16393;SDS011;8306;51.128;4.476;2023-02-07T11:53:39;6.23;;;5.73;;
16393;SDS011;8306;51.128;4.476;2023-02-07T11:56:05;5.73;;;5.13;;
16393;SDS011;8306;51.128;4.476;2023-02-07T11:58:36;6.23;;;5.73;;
16393;SDS011;8306;51.128;4.476;2023-02-07T12:01:02;5.90;;;5.40;;
16393;SDS011;8306;51.128;4.476;2023-02-07T12:03:30;6.90;;;6.20;;
16393;SDS011;8306;51.128;4.476;2023-02-07T12:05:54;5.90;;;5.50;;
16393;SDS011;8306;51.128;4.476;2023-02-07T12:08:21;7.00;;;6.40;;
16393;SDS011;8306;51.128;4.476;2023-02-07T12:10:48;6.67;;;6.17;;
16393;SDS011;8306;51.128;4.476;2023-02-07T12:13:20;5.73;;;5.33;;
16393;SDS011;8306;51.128;4.476;2023-02-07T12:15:47;6.37;;;5.80;;
16393;SDS011;8306;51.128;4.476;2023-02-07T12:18:25;7.30;;;6.40;;
16393;SDS011;8306;51.128;4.476;2023-02-07T12:23:43;6.70;;;6.10;;
16393;SDS011;8306;51.128;4.476;2023-02-07T12:26:50;6.93;;;6.33;;
16393;SDS011;8306;51.128;4.476;2023-02-07T12:34:37;6.83;;;6.23;;
16393;SDS011;8306;51.128;4.476;2023-02-07T12:37:31;7.60;;;6.93;;
16393;SDS011;8306;51.128;4.476;2023-02-07T12:42:41;7.20;;;6.60;;
16393;SDS011;8306;51.128;4.476;2023-02-07T12:45:14;8.80;;;8.03;;
16393;SDS011;8306;51.128;4.476;2023-02-07T12:56:09;6.90;;;6.20;;
16393;SDS011;8306;51.128;4.476;2023-02-07T13:04:07;7.37;;;6.70;;
16393;SDS011;8306;51.128;4.476;2023-02-07T13:09:50;7.13;;;6.50;;
16393;SDS011;8306;51.128;4.476;2023-02-07T13:11:51;7.20;;;6.60;;
16393;SDS011;8306;51.128;4.476;2023-02-07T13:14:40;6.27;;;5.77;;
16393;SDS011;8306;51.128;4.476;2023-02-07T13:17:27;7.23;;;6.73;;
16393;SDS011;8306;51.128;4.476;2023-02-07T13:20:04;8.10;;;7.40;;
16393;SDS011;8306;51.128;4.476;2023-02-07T13:22:42;7.93;;;7.23;;
16393;SDS011;8306;51.128;4.476;2023-02-07T13:25:12;8.87;;;8.10;;
16393;SDS011;8306;51.128;4.476;2023-02-07T13:27:34;8.97;;;8.27;;
16393;SDS011;8306;51.128;4.476;2023-02-07T13:30:01;7.60;;;7.00;;
16393;SDS011;8306;51.128;4.476;2023-02-07T13:32:27;8.47;;;7.53;;
16393;SDS011;8306;51.128;4.476;2023-02-07T13:34:58;7.03;;;6.40;;
16393;SDS011;8306;51.128;4.476;2023-02-07T13:38:12;6.50;;;6.00;;
16393;SDS011;8306;51.128;4.476;2023-02-07T13:40:31;6.30;;;5.80;;
16393;SDS011;8306;51.128;4.476;2023-02-07T13:43:03;6.63;;;6.00;;
16393;SDS011;8306;51.128;4.476;2023-02-07T13:45:34;6.33;;;5.83;;
16393;SDS011;8306;51.128;4.476;2023-02-07T13:53:16;6.47;;;5.97;;
16393;SDS011;8306;51.128;4.476;2023-02-07T13:55:51;6.47;;;5.97;;
16393;SDS011;8306;51.128;4.476;2023-02-07T14:01:18;6.33;;;5.83;;
16393;SDS011;8306;51.128;4.476;2023-02-07T14:06:31;6.37;;;5.87;;
16393;SDS011;8306;51.128;4.476;2023-02-07T14:09:16;6.67;;;6.17;;
16393;SDS011;8306;51.128;4.476;2023-02-07T14:11:45;6.53;;;6.03;;
16393;SDS011;8306;51.128;4.476;2023-02-07T14:14:14;6.17;;;5.63;;
16393;SDS011;8306;51.128;4.476;2023-02-07T14:16:49;6.17;;;5.67;;
16393;SDS011;8306;51.128;4.476;2023-02-07T14:19:15;7.07;;;6.43;;
16393;SDS011;8306;51.128;4.476;2023-02-07T14:21:42;6.20;;;5.80;;
16393;SDS011;8306;51.128;4.476;2023-02-07T14:31:48;7.10;;;6.50;;
16393;SDS011;8306;51.128;4.476;2023-02-07T14:34:20;7.80;;;6.00;;
16393;SDS011;8306;51.128;4.476;2023-02-07T14:36:47;6.80;;;6.20;;
16393;SDS011;8306;51.128;4.476;2023-02-07T14:41:47;7.53;;;6.83;;
16393;SDS011;8306;51.128;4.476;2023-02-07T14:44:23;7.10;;;6.50;;
16393;SDS011;8306;51.128;4.476;2023-02-07T14:46:59;7.47;;;6.73;;
16393;SDS011;8306;51.128;4.476;2023-02-07T14:49:47;6.67;;;6.07;;
16393;SDS011;8306;51.128;4.476;2023-02-07T14:51:59;6.93;;;6.33;;
16393;SDS011;8306;51.128;4.476;2023-02-07T15:02:39;6.43;;;5.93;;
16393;SDS011;8306;51.128;4.476;2023-02-07T15:07:41;6.17;;;5.67;;
16393;SDS011;8306;51.128;4.476;2023-02-07T15:10:27;6.17;;;5.77;;
16393;SDS011;8306;51.128;4.476;2023-02-07T15:12:50;6.57;;;5.00;;
16393;SDS011;8306;51.128;4.476;2023-02-07T15:15:18;6.97;;;6.27;;
16393;SDS011;8306;51.128;4.476;2023-02-07T15:17:45;7.57;;;6.97;;
16393;SDS011;8306;51.128;4.476;2023-02-07T15:20:15;6.43;;;5.83;;
16393;SDS011;8306;51.128;4.476;2023-02-07T15:22:41;6.63;;;6.13;;
16393;SDS011;8306;51.128;4.476;2023-02-07T15:25:10;6.30;;;5.80;;
16393;SDS011;8306;51.128;4.476;2023-02-07T15:27:34;6.50;;;5.90;;
16393;SDS011;8306;51.128;4.476;2023-02-07T15:30:01;6.70;;;6.20;;
16393;SDS011;8306;51.128;4.476;2023-02-07T15:32:27;7.20;;;6.60;;
16393;SDS011;8306;51.128;4.476;2023-02-07T15:34:53;6.73;;;6.13;;
16393;SDS011;8306;51.128;4.476;2023-02-07T15:37:20;6.67;;;6.07;;
16393;SDS011;8306;51.128;4.476;2023-02-07T15:39:46;7.60;;;6.83;;
16393;SDS011;8306;51.128;4.476;2023-02-07T15:42:14;6.60;;;6.10;;
16393;SDS011;8306;51.128;4.476;2023-02-07T15:44:49;7.83;;;7.13;;
16393;SDS011;8306;51.128;4.476;2023-02-07T15:49:59;8.57;;;7.73;;
16393;SDS011;8306;51.128;4.476;2023-02-07T15:52:31;8.00;;;7.40;;
16393;SDS011;8306;51.128;4.476;2023-02-07T15:54:57;8.40;;;7.70;;
16393;SDS011;8306;51.128;4.476;2023-02-07T15:57:32;8.57;;;7.77;;
16393;SDS011;8306;51.128;4.476;2023-02-07T16:00:00;8.50;;;7.80;;
16393;SDS011;8306;51.128;4.476;2023-02-07T16:02:32;7.80;;;7.10;;
16393;SDS011;8306;51.128;4.476;2023-02-07T16:04:55;8.10;;;7.50;;
16393;SDS011;8306;51.128;4.476;2023-02-07T16:07:21;8.10;;;7.33;;
16393;SDS011;8306;51.128;4.476;2023-02-07T16:09:48;7.87;;;7.13;;
16393;SDS011;8306;51.128;4.476;2023-02-07T16:15:00;7.70;;;7.00;;
16393;SDS011;8306;51.128;4.476;2023-02-07T16:17:35;8.43;;;7.73;;
16393;SDS011;8306;51.128;4.476;2023-02-07T16:19:52;8.43;;;6.77;;
16393;SDS011;8306;51.128;4.476;2023-02-07T16:22:20;7.60;;;7.00;;
16393;SDS011;8306;51.128;4.476;2023-02-07T16:24:45;7.87;;;7.13;;
16393;SDS011;8306;51.128;4.476;2023-02-07T16:27:14;8.67;;;7.90;;
16393;SDS011;8306;51.128;4.476;2023-02-07T16:29:46;8.40;;;7.63;;
16393;SDS011;8306;51.128;4.476;2023-02-07T16:32:13;8.47;;;7.83;;
16393;SDS011;8306;51.128;4.476;2023-02-07T16:34:39;8.50;;;7.90;;
16393;SDS011;8306;51.128;4.476;2023-02-07T16:37:06;8.30;;;7.60;;
16393;SDS011;8306;51.128;4.476;2023-02-07T16:39:32;7.77;;;7.17;;
16393;SDS011;8306;51.128;4.476;2023-02-07T16:42:04;8.53;;;7.73;;
16393;SDS011;8306;51.128;4.476;2023-02-07T16:44:25;7.57;;;6.97;;
16393;SDS011;8306;51.128;4.476;2023-02-07T16:46:52;7.33;;;6.63;;
16393;SDS011;8306;51.128;4.476;2023-02-07T16:49:25;7.73;;;7.00;;
16393;SDS011;8306;51.128;4.476;2023-02-07T16:51:50;7.57;;;6.87;;
16393;SDS011;8306;51.128;4.476;2023-02-07T16:54:17;7.30;;;6.60;;